sensor_id;sensor_type;location;lat;lon;timestamp;pressure;altitude;pressure_sealevel;temperature;humidity
71195;BME280;58908;51.426;7.714;2022-12-24T00:02:26;98783.63;;;9.38;100.00
71195;BME280;58908;51.426;7.714;2022-12-24T00:04:52;98769.44;;;9.41;100.00
71195;BME280;58908;51.426;7.714;2022-12-24T00:07:18;98784.56;;;9.37;100.00
71195;BME280;58908;51.426;7.714;2022-12-24T00:09:45;98782.47;;;9.42;100.00
71195;BME280;58908;51.426;7.714;2022-12-24T00:12:11;98788.56;;;9.30;100.00
71195;BME280;58908;51.426;7.714;2022-12-24T00:14:37;98789.28;;;9.32;100.00
71195;BME280;58908;51.426;7.714;2022-12-24T00:17:03;98801.72;;;9.30;100.00
71195;BME280;58908;51.426;7.714;2022-12-24T00:19:31;98816.84;;;9.27;100.00
71195;BME280;58908;51.426;7.714;2022-12-24T00:21:57;98799.09;;;9.30;100.00
71195;BME280;58908;51.426;7.714;2022-12-24T00:24:23;98818.03;;;9.23;100.00
71195;BME280;58908;51.426;7.714;2022-12-24T00:26:50;98819.28;;;9.17;100.00
71195;BME280;58908;51.426;7.714;2022-12-24T00:29:16;98822.84;;;9.16;100.00
71195;BME280;58908;51.426;7.714;2022-12-24T00:31:42;98836.09;;;9.15;100.00
71195;BME280;58908;51.426;7.714;2022-12-24T00:34:08;98825.56;;;9.15;100.00
71195;BME280;58908;51.426;7.714;2022-12-24T00:36:36;98833.66;;;9.12;100.00
71195;BME280;58908;51.426;7.714;2022-12-24T00:39:02;98843.38;;;9.11;100.00
71195;BME280;58908;51.426;7.714;2022-12-24T00:41:29;98847.25;;;9.18;100.00
71195;BME280;58908;51.426;7.714;2022-12-24T00:43:56;98847.69;;;9.12;100.00
71195;BME280;58908;51.426;7.714;2022-12-24T00:46:23;98854.06;;;9.08;100.00
71195;BME280;58908;51.426;7.714;2022-12-24T00:48:50;98845.34;;;9.08;100.00
71195;BME280;58908;51.426;7.714;2022-12-24T00:51:16;98854.19;;;9.07;100.00
71195;BME280;58908;51.426;7.714;2022-12-24T00:53:44;98864.28;;;9.00;100.00
71195;BME280;58908;51.426;7.714;2022-12-24T00:56:10;98865.00;;;9.02;100.00
71195;BME280;58908;51.426;7.714;2022-12-24T00:58:36;98866.69;;;9.03;100.00
71195;BME280;58908;51.426;7.714;2022-12-24T01:01:03;98867.00;;;8.99;100.00
71195;BME280;58908;51.426;7.714;2022-12-24T01:03:29;98866.34;;;8.95;100.00
71195;BME280;58908;51.426;7.714;2022-12-24T01:06:02;98869.63;;;8.99;100.00
71195;BME280;58908;51.426;7.714;2022-12-24T01:08:27;98875.13;;;9.08;100.00
71195;BME280;58908;51.426;7.714;2022-12-24T01:10:55;98877.16;;;9.17;100.00
71195;BME280;58908;51.426;7.714;2022-12-24T01:13:22;98882.31;;;9.19;100.00
71195;BME280;58908;51.426;7.714;2022-12-24T01:15:48;98892.94;;;9.17;100.00
71195;BME280;58908;51.426;7.714;2022-12-24T01:18:14;98885.03;;;9.17;100.00
71195;BME280;58908;51.426;7.714;2022-12-24T01:20:41;98899.22;;;9.15;100.00
71195;BME280;58908;51.426;7.714;2022-12-24T01:23:07;98897.53;;;9.14;100.00
71195;BME280;58908;51.426;7.714;2022-12-24T01:25:33;98908.94;;;9.14;100.00
71195;BME280;58908;51.426;7.714;2022-12-24T01:28:01;98904.78;;;9.10;100.00
71195;BME280;58908;51.426;7.714;2022-12-24T01:30:27;98913.16;;;9.17;100.00
71195;BME280;58908;51.426;7.714;2022-12-24T01:32:53;98905.56;;;9.12;100.00
71195;BME280;58908;51.426;7.714;2022-12-24T01:35:20;98930.34;;;9.08;100.00
71195;BME280;58908;51.426;7.714;2022-12-24T01:37:46;98924.72;;;9.14;100.00
71195;BME280;58908;51.426;7.714;2022-12-24T01:40:13;98936.91;;;9.15;100.00
71195;BME280;58908;51.426;7.714;2022-12-24T01:42:57;98935.53;;;9.10;100.00
71195;BME280;58908;51.426;7.714;2022-12-24T01:45:47;98931.31;;;9.07;100.00
71195;BME280;58908;51.426;7.714;2022-12-24T01:48:15;98944.25;;;9.10;100.00
71195;BME280;58908;51.426;7.714;2022-12-24T01:50:43;98946.59;;;9.15;100.00
71195;BME280;58908;51.426;7.714;2022-12-24T01:53:10;98940.38;;;9.16;100.00
71195;BME280;58908;51.426;7.714;2022-12-24T01:55:37;98937.00;;;9.14;100.00
71195;BME280;58908;51.426;7.714;2022-12-24T01:58:04;98929.78;;;9.17;100.00
71195;BME280;58908;51.426;7.714;2022-12-24T02:00:31;98942.28;;;9.14;100.00
71195;BME280;58908;51.426;7.714;2022-12-24T02:02:59;98948.28;;;9.16;100.00
71195;BME280;58908;51.426;7.714;2022-12-24T02:05:26;98945.41;;;9.06;100.00
71195;BME280;58908;51.426;7.714;2022-12-24T02:07:54;98951.97;;;8.99;100.00
71195;BME280;58908;51.426;7.714;2022-12-24T02:10:23;98951.59;;;9.05;100.00
71195;BME280;58908;51.426;7.714;2022-12-24T02:12:49;98959.78;;;9.01;100.00
71195;BME280;58908;51.426;7.714;2022-12-24T02:15:17;98961.28;;;9.05;100.00
71195;BME280;58908;51.426;7.714;2022-12-24T02:17:45;98975.38;;;9.04;100.00
71195;BME280;58908;51.426;7.714;2022-12-24T02:23:11;98981.03;;;8.98;100.00
71195;BME280;58908;51.426;7.714;2022-12-24T02:25:49;98979.50;;;8.94;100.00
71195;BME280;58908;51.426;7.714;2022-12-24T02:28:21;98974.44;;;8.91;100.00
71195;BME280;58908;51.426;7.714;2022-12-24T02:30:55;98985.84;;;8.91;100.00
71195;BME280;58908;51.426;7.714;2022-12-24T02:33:25;98982.91;;;8.96;100.00
71195;BME280;58908;51.426;7.714;2022-12-24T02:35:55;98991.63;;;8.96;100.00
71195;BME280;58908;51.426;7.714;2022-12-24T02:38:23;98996.06;;;8.96;100.00
71195;BME280;58908;51.426;7.714;2022-12-24T02:40:52;99009.38;;;8.93;100.00
71195;BME280;58908;51.426;7.714;2022-12-24T02:43:21;99003.59;;;8.88;100.00
71195;BME280;58908;51.426;7.714;2022-12-24T02:45:50;99009.59;;;8.90;100.00
71195;BME280;58908;51.426;7.714;2022-12-24T02:48:18;99010.16;;;8.81;100.00
71195;BME280;58908;51.426;7.714;2022-12-24T02:50:55;99017.09;;;8.82;100.00
71195;BME280;58908;51.426;7.714;2022-12-24T02:53:22;99027.25;;;8.74;100.00
71195;BME280;58908;51.426;7.714;2022-12-24T02:55:50;99016.63;;;8.75;100.00
71195;BME280;58908;51.426;7.714;2022-12-24T02:58:24;99032.97;;;8.66;100.00
71195;BME280;58908;51.426;7.714;2022-12-24T03:00:54;99033.28;;;8.62;100.00
71195;BME280;58908;51.426;7.714;2022-12-24T03:03:44;99033.91;;;8.51;100.00
71195;BME280;58908;51.426;7.714;2022-12-24T03:06:14;99036.34;;;8.54;100.00
71195;BME280;58908;51.426;7.714;2022-12-24T03:08:47;99031.75;;;8.58;100.00
71195;BME280;58908;51.426;7.714;2022-12-24T03:11:16;99031.28;;;8.65;100.00
71195;BME280;58908;51.426;7.714;2022-12-24T03:13:43;99033.44;;;8.59;100.00
71195;BME280;58908;51.426;7.714;2022-12-24T03:16:10;99039.91;;;8.53;100.00
71195;BME280;58908;51.426;7.714;2022-12-24T03:18:38;99042.38;;;8.56;100.00
71195;BME280;58908;51.426;7.714;2022-12-24T03:21:08;99046.09;;;8.52;100.00
71195;BME280;58908;51.426;7.714;2022-12-24T03:23:35;99047.91;;;8.52;100.00
71195;BME280;58908;51.426;7.714;2022-12-24T03:26:03;99044.06;;;8.57;100.00
71195;BME280;58908;51.426;7.714;2022-12-24T03:28:34;99043.47;;;8.52;100.00
71195;BME280;58908;51.426;7.714;2022-12-24T03:31:02;99048.06;;;8.49;100.00
71195;BME280;58908;51.426;7.714;2022-12-24T03:33:29;99056.25;;;8.44;100.00
71195;BME280;58908;51.426;7.714;2022-12-24T03:35:55;99060.38;;;8.48;100.00
71195;BME280;58908;51.426;7.714;2022-12-24T03:38:23;99063.53;;;8.39;100.00
71195;BME280;58908;51.426;7.714;2022-12-24T03:40:49;99063.94;;;8.33;100.00
71195;BME280;58908;51.426;7.714;2022-12-24T03:43:15;99066.09;;;8.41;100.00
71195;BME280;58908;51.426;7.714;2022-12-24T03:45:42;99072.84;;;8.45;100.00
71195;BME280;58908;51.426;7.714;2022-12-24T03:48:08;99080.47;;;8.49;100.00
71195;BME280;58908;51.426;7.714;2022-12-24T03:50:34;99084.84;;;8.49;100.00
71195;BME280;58908;51.426;7.714;2022-12-24T03:53:00;99079.78;;;8.46;100.00
71195;BME280;58908;51.426;7.714;2022-12-24T03:55:28;99074.25;;;8.50;100.00
71195;BME280;58908;51.426;7.714;2022-12-24T03:57:54;99077.56;;;8.54;100.00
71195;BME280;58908;51.426;7.714;2022-12-24T04:00:21;99083.22;;;8.62;100.00
71195;BME280;58908;51.426;7.714;2022-12-24T04:02:47;99084.25;;;8.73;100.00
71195;BME280;58908;51.426;7.714;2022-12-24T04:05:14;99085.19;;;8.72;100.00
71195;BME280;58908;51.426;7.714;2022-12-24T04:07:40;99089.16;;;8.79;100.00
71195;BME280;58908;51.426;7.714;2022-12-24T04:10:07;99088.38;;;8.77;100.00
71195;BME280;58908;51.426;7.714;2022-12-24T04:12:35;99088.09;;;8.82;100.00
71195;BME280;58908;51.426;7.714;2022-12-24T04:15:02;99090.16;;;8.77;100.00
71195;BME280;58908;51.426;7.714;2022-12-24T04:17:28;99095.34;;;8.78;100.00
71195;BME280;58908;51.426;7.714;2022-12-24T04:19:54;99093.47;;;8.80;100.00
71195;BME280;58908;51.426;7.714;2022-12-24T04:22:21;99094.13;;;8.84;100.00
71195;BME280;58908;51.426;7.714;2022-12-24T04:24:47;99093.06;;;8.86;100.00
71195;BME280;58908;51.426;7.714;2022-12-24T04:27:13;99108.03;;;8.86;100.00
71195;BME280;58908;51.426;7.714;2022-12-24T04:29:41;99106.06;;;8.89;100.00
71195;BME280;58908;51.426;7.714;2022-12-24T04:35:10;99100.41;;;8.81;100.00
71195;BME280;58908;51.426;7.714;2022-12-24T04:37:36;99105.22;;;8.89;100.00
71195;BME280;58908;51.426;7.714;2022-12-24T04:40:03;99106.06;;;8.89;100.00
71195;BME280;58908;51.426;7.714;2022-12-24T04:42:29;99101.56;;;8.91;100.00
71195;BME280;58908;51.426;7.714;2022-12-24T04:44:57;99117.22;;;8.93;100.00
71195;BME280;58908;51.426;7.714;2022-12-24T04:47:23;99109.31;;;8.93;100.00
71195;BME280;58908;51.426;7.714;2022-12-24T04:49:49;99118.09;;;8.93;100.00
71195;BME280;58908;51.426;7.714;2022-12-24T04:52:15;99120.50;;;8.96;100.00
71195;BME280;58908;51.426;7.714;2022-12-24T04:54:42;99123.16;;;8.96;100.00
71195;BME280;58908;51.426;7.714;2022-12-24T04:57:08;99123.06;;;8.98;100.00
71195;BME280;58908;51.426;7.714;2022-12-24T04:59:34;99119.78;;;8.94;100.00
71195;BME280;58908;51.426;7.714;2022-12-24T05:02:02;99118.75;;;8.97;100.00
71195;BME280;58908;51.426;7.714;2022-12-24T05:04:28;99111.88;;;8.94;100.00
71195;BME280;58908;51.426;7.714;2022-12-24T05:06:55;99109.25;;;8.94;100.00
71195;BME280;58908;51.426;7.714;2022-12-24T05:09:22;99119.69;;;8.96;100.00
71195;BME280;58908;51.426;7.714;2022-12-24T05:11:48;99116.88;;;8.99;100.00
71195;BME280;58908;51.426;7.714;2022-12-24T05:14:14;99126.53;;;8.98;100.00
71195;BME280;58908;51.426;7.714;2022-12-24T05:16:41;99123.81;;;9.00;100.00
71195;BME280;58908;51.426;7.714;2022-12-24T05:19:09;99124.66;;;9.00;100.00
71195;BME280;58908;51.426;7.714;2022-12-24T05:21:35;99129.75;;;9.03;100.00
71195;BME280;58908;51.426;7.714;2022-12-24T05:24:01;99128.88;;;9.03;100.00
71195;BME280;58908;51.426;7.714;2022-12-24T05:26:47;99126.63;;;8.97;100.00
71195;BME280;58908;51.426;7.714;2022-12-24T05:29:14;99128.41;;;8.96;100.00
71195;BME280;58908;51.426;7.714;2022-12-24T05:31:41;99129.81;;;9.02;100.00
71195;BME280;58908;51.426;7.714;2022-12-24T05:34:10;99141.09;;;9.04;100.00
71195;BME280;58908;51.426;7.714;2022-12-24T05:36:37;99142.88;;;9.03;100.00
71195;BME280;58908;51.426;7.714;2022-12-24T05:39:03;99140.16;;;9.05;100.00
71195;BME280;58908;51.426;7.714;2022-12-24T05:41:30;99138.38;;;9.05;100.00
71195;BME280;58908;51.426;7.714;2022-12-24T05:43:56;99138.03;;;9.11;100.00
71195;BME280;58908;51.426;7.714;2022-12-24T05:46:23;99140.53;;;9.13;100.00
71195;BME280;58908;51.426;7.714;2022-12-24T05:48:49;99146.00;;;9.10;100.00
71195;BME280;58908;51.426;7.714;2022-12-24T05:51:18;99147.88;;;9.08;100.00
71195;BME280;58908;51.426;7.714;2022-12-24T05:53:46;99149.56;;;9.09;100.00
71195;BME280;58908;51.426;7.714;2022-12-24T05:56:13;99150.41;;;9.09;100.00
71195;BME280;58908;51.426;7.714;2022-12-24T05:58:40;99148.63;;;9.10;100.00
71195;BME280;58908;51.426;7.714;2022-12-24T06:01:06;99153.13;;;9.08;100.00
71195;BME280;58908;51.426;7.714;2022-12-24T06:03:32;99156.44;;;9.11;100.00
71195;BME280;58908;51.426;7.714;2022-12-24T06:05:59;99151.16;;;9.11;100.00
71195;BME280;58908;51.426;7.714;2022-12-24T06:08:27;99150.97;;;9.14;100.00
71195;BME280;58908;51.426;7.714;2022-12-24T06:10:54;99155.28;;;9.15;100.00
71195;BME280;58908;51.426;7.714;2022-12-24T06:13:21;99150.03;;;9.15;100.00
71195;BME280;58908;51.426;7.714;2022-12-24T06:15:48;99160.66;;;9.14;100.00
71195;BME280;58908;51.426;7.714;2022-12-24T06:18:14;99160.91;;;9.09;100.00
71195;BME280;58908;51.426;7.714;2022-12-24T06:20:43;99164.31;;;9.11;100.00
71195;BME280;58908;51.426;7.714;2022-12-24T06:23:10;99169.75;;;9.08;100.00
71195;BME280;58908;51.426;7.714;2022-12-24T06:25:37;99159.06;;;9.11;100.00
71195;BME280;58908;51.426;7.714;2022-12-24T06:28:04;99159.16;;;9.10;100.00
71195;BME280;58908;51.426;7.714;2022-12-24T06:30:30;99161.69;;;9.11;100.00
71195;BME280;58908;51.426;7.714;2022-12-24T06:32:56;99171.28;;;9.12;100.00
71195;BME280;58908;51.426;7.714;2022-12-24T06:35:22;99163.28;;;9.14;100.00
71195;BME280;58908;51.426;7.714;2022-12-24T06:37:49;99166.66;;;9.16;100.00
71195;BME280;58908;51.426;7.714;2022-12-24T06:40:15;99174.75;;;9.13;100.00
71195;BME280;58908;51.426;7.714;2022-12-24T06:42:42;99186.28;;;9.10;100.00
71195;BME280;58908;51.426;7.714;2022-12-24T06:45:09;99190.53;;;9.13;100.00
71195;BME280;58908;51.426;7.714;2022-12-24T06:47:35;99181.88;;;9.11;100.00
71195;BME280;58908;51.426;7.714;2022-12-24T06:50:02;99182.75;;;9.11;100.00
71195;BME280;58908;51.426;7.714;2022-12-24T06:52:28;99189.97;;;9.08;100.00
71195;BME280;58908;51.426;7.714;2022-12-24T06:54:54;99195.31;;;9.06;100.00
71195;BME280;58908;51.426;7.714;2022-12-24T06:57:21;99201.25;;;9.10;100.00
71195;BME280;58908;51.426;7.714;2022-12-24T06:59:48;99201.03;;;9.13;100.00
71195;BME280;58908;51.426;7.714;2022-12-24T07:02:14;99208.59;;;9.19;100.00
71195;BME280;58908;51.426;7.714;2022-12-24T07:04:41;99223.31;;;9.21;100.00
71195;BME280;58908;51.426;7.714;2022-12-24T07:07:07;99209.41;;;9.19;100.00
71195;BME280;58908;51.426;7.714;2022-12-24T07:09:33;99229.38;;;9.23;100.00
71195;BME280;58908;51.426;7.714;2022-12-24T07:11:59;99221.56;;;9.22;100.00
71195;BME280;58908;51.426;7.714;2022-12-24T07:14:26;99227.00;;;9.19;100.00
71195;BME280;58908;51.426;7.714;2022-12-24T07:16:54;99224.47;;;9.17;100.00
71195;BME280;58908;51.426;7.714;2022-12-24T07:19:21;99239.41;;;9.17;100.00
71195;BME280;58908;51.426;7.714;2022-12-24T07:21:47;99236.13;;;9.13;100.00
71195;BME280;58908;51.426;7.714;2022-12-24T07:24:14;99237.69;;;9.16;100.00
71195;BME280;58908;51.426;7.714;2022-12-24T07:26:40;99240.50;;;9.13;100.00
71195;BME280;58908;51.426;7.714;2022-12-24T07:29:07;99235.25;;;9.13;100.00
71195;BME280;58908;51.426;7.714;2022-12-24T07:31:33;99248.53;;;9.11;100.00
71195;BME280;58908;51.426;7.714;2022-12-24T07:34:01;99247.59;;;9.12;100.00
71195;BME280;58908;51.426;7.714;2022-12-24T07:36:27;99244.94;;;9.12;100.00
71195;BME280;58908;51.426;7.714;2022-12-24T07:38:53;99250.28;;;9.11;100.00
71195;BME280;58908;51.426;7.714;2022-12-24T07:41:20;99248.53;;;9.11;100.00
71195;BME280;58908;51.426;7.714;2022-12-24T07:43:47;99256.75;;;9.05;100.00
71195;BME280;58908;51.426;7.714;2022-12-24T07:46:13;99263.38;;;9.12;100.00
71195;BME280;58908;51.426;7.714;2022-12-24T07:48:39;99272.94;;;9.13;100.00
71195;BME280;58908;51.426;7.714;2022-12-24T07:51:07;99266.16;;;9.09;100.00
71195;BME280;58908;51.426;7.714;2022-12-24T07:53:33;99263.78;;;9.05;100.00
71195;BME280;58908;51.426;7.714;2022-12-24T07:56:00;99264.56;;;9.07;100.00
71195;BME280;58908;51.426;7.714;2022-12-24T07:58:26;99270.78;;;9.06;100.00
71195;BME280;58908;51.426;7.714;2022-12-24T08:00:56;99276.53;;;9.12;100.00
71195;BME280;58908;51.426;7.714;2022-12-24T08:03:23;99270.47;;;9.10;100.00
71195;BME280;58908;51.426;7.714;2022-12-24T08:05:49;99274.81;;;9.11;100.00
71195;BME280;58908;51.426;7.714;2022-12-24T08:08:17;99279.16;;;9.12;100.00
71195;BME280;58908;51.426;7.714;2022-12-24T08:10:44;99282.53;;;9.14;100.00
71195;BME280;58908;51.426;7.714;2022-12-24T08:13:11;99300.84;;;9.16;100.00
71195;BME280;58908;51.426;7.714;2022-12-24T08:15:37;99291.09;;;9.18;100.00
71195;BME280;58908;51.426;7.714;2022-12-24T08:18:03;99300.69;;;9.19;100.00
71195;BME280;58908;51.426;7.714;2022-12-24T08:20:29;99303.31;;;9.19;100.00
71195;BME280;58908;51.426;7.714;2022-12-24T08:22:56;99319.00;;;9.20;100.00
71195;BME280;58908;51.426;7.714;2022-12-24T08:25:23;99320.78;;;9.20;100.00
71195;BME280;58908;51.426;7.714;2022-12-24T08:27:50;99317.72;;;9.27;100.00
71195;BME280;58908;51.426;7.714;2022-12-24T08:30:16;99312.38;;;9.29;100.00
71195;BME280;58908;51.426;7.714;2022-12-24T08:32:42;99322.03;;;9.28;100.00
71195;BME280;58908;51.426;7.714;2022-12-24T08:35:09;99324.66;;;9.28;100.00
71195;BME280;58908;51.426;7.714;2022-12-24T08:37:35;99325.53;;;9.29;100.00
71195;BME280;58908;51.426;7.714;2022-12-24T08:40:01;99339.31;;;9.32;100.00
71195;BME280;58908;51.426;7.714;2022-12-24T08:42:29;99338.97;;;9.38;100.00
71195;BME280;58908;51.426;7.714;2022-12-24T08:44:55;99345.94;;;9.39;100.00
71195;BME280;58908;51.426;7.714;2022-12-24T08:47:21;99343.31;;;9.39;100.00
71195;BME280;58908;51.426;7.714;2022-12-24T08:49:47;99359.38;;;9.35;100.00
71195;BME280;58908;51.426;7.714;2022-12-24T08:52:14;99356.91;;;9.32;100.00
71195;BME280;58908;51.426;7.714;2022-12-24T08:54:40;99354.38;;;9.30;100.00
71195;BME280;58908;51.426;7.714;2022-12-24T08:57:06;99355.91;;;9.34;100.00
71195;BME280;58908;51.426;7.714;2022-12-24T08:59:34;99350.63;;;9.34;100.00
71195;BME280;58908;51.426;7.714;2022-12-24T09:02:00;99367.94;;;9.38;100.00
71195;BME280;58908;51.426;7.714;2022-12-24T09:04:26;99367.06;;;9.38;100.00
71195;BME280;58908;51.426;7.714;2022-12-24T09:06:53;99370.50;;;9.40;100.00
71195;BME280;58908;51.426;7.714;2022-12-24T09:09:19;99382.88;;;9.38;100.00
71195;BME280;58908;51.426;7.714;2022-12-24T09:11:45;99381.84;;;9.40;100.00
71195;BME280;58908;51.426;7.714;2022-12-24T09:14:11;99384.28;;;9.43;100.00
71195;BME280;58908;51.426;7.714;2022-12-24T09:16:39;99386.00;;;9.44;100.00
71195;BME280;58908;51.426;7.714;2022-12-24T09:19:06;99392.97;;;9.45;100.00
71195;BME280;58908;51.426;7.714;2022-12-24T09:21:32;99397.19;;;9.47;100.00
71195;BME280;58908;51.426;7.714;2022-12-24T09:23:58;99392.16;;;9.58;100.00
71195;BME280;58908;51.426;7.714;2022-12-24T09:26:25;99402.94;;;9.54;100.00
71195;BME280;58908;51.426;7.714;2022-12-24T09:28:53;99416.22;;;9.52;100.00
71195;BME280;58908;51.426;7.714;2022-12-24T09:31:20;99413.66;;;9.51;100.00
71195;BME280;58908;51.426;7.714;2022-12-24T09:33:48;99418.75;;;9.54;100.00
71195;BME280;58908;51.426;7.714;2022-12-24T09:36:15;99425.28;;;9.62;100.00
71195;BME280;58908;51.426;7.714;2022-12-24T09:38:41;99428.41;;;9.69;100.00
71195;BME280;58908;51.426;7.714;2022-12-24T09:41:12;99430.50;;;9.78;100.00
71195;BME280;58908;51.426;7.714;2022-12-24T09:43:39;99422.88;;;9.87;100.00
71195;BME280;58908;51.426;7.714;2022-12-24T09:46:12;99433.44;;;10.01;100.00
71195;BME280;58908;51.426;7.714;2022-12-24T09:48:42;99434.91;;;10.07;100.00
71195;BME280;58908;51.426;7.714;2022-12-24T09:51:11;99432.09;;;10.24;100.00
71195;BME280;58908;51.426;7.714;2022-12-24T09:53:39;99437.84;;;10.30;100.00
71195;BME280;58908;51.426;7.714;2022-12-24T09:56:08;99443.66;;;10.21;100.00
71195;BME280;58908;51.426;7.714;2022-12-24T09:58:37;99440.97;;;10.23;100.00
71195;BME280;58908;51.426;7.714;2022-12-24T10:01:05;99434.81;;;10.22;100.00
71195;BME280;58908;51.426;7.714;2022-12-24T10:03:34;99445.75;;;10.16;100.00
71195;BME280;58908;51.426;7.714;2022-12-24T10:06:03;99452.50;;;10.06;100.00
71195;BME280;58908;51.426;7.714;2022-12-24T10:08:37;99465.41;;;10.11;100.00
71195;BME280;58908;51.426;7.714;2022-12-24T10:11:10;99458.72;;;10.05;100.00
71195;BME280;58908;51.426;7.714;2022-12-24T10:13:45;99456.31;;;10.01;100.00
71195;BME280;58908;51.426;7.714;2022-12-24T10:16:14;99457.16;;;10.01;100.00
71195;BME280;58908;51.426;7.714;2022-12-24T10:18:44;99468.84;;;9.97;100.00
71195;BME280;58908;51.426;7.714;2022-12-24T10:21:16;99458.72;;;10.05;100.00
71195;BME280;58908;51.426;7.714;2022-12-24T10:23:50;99460.19;;;9.95;100.00
71195;BME280;58908;51.426;7.714;2022-12-24T10:26:19;99448.84;;;9.93;100.00
71195;BME280;58908;51.426;7.714;2022-12-24T10:28:49;99456.31;;;10.01;100.00
71195;BME280;58908;51.426;7.714;2022-12-24T10:31:18;99462.13;;;10.07;100.00
71195;BME280;58908;51.426;7.714;2022-12-24T10:33:47;99467.78;;;10.29;100.00
71195;BME280;58908;51.426;7.714;2022-12-24T10:36:16;99460.72;;;10.30;100.00
71195;BME280;58908;51.426;7.714;2022-12-24T10:38:43;99464.97;;;10.32;100.00
71195;BME280;58908;51.426;7.714;2022-12-24T10:41:11;99473.34;;;10.25;100.00
71195;BME280;58908;51.426;7.714;2022-12-24T10:43:38;99471.31;;;10.14;100.00
71195;BME280;58908;51.426;7.714;2022-12-24T10:46:07;99467.88;;;10.14;100.00
71195;BME280;58908;51.426;7.714;2022-12-24T10:48:42;99468.53;;;10.31;100.00
71195;BME280;58908;51.426;7.714;2022-12-24T10:51:12;99468.94;;;10.39;100.00
71195;BME280;58908;51.426;7.714;2022-12-24T10:53:41;99475.31;;;10.35;100.00
71195;BME280;58908;51.426;7.714;2022-12-24T10:56:08;99464.69;;;10.37;100.00
71195;BME280;58908;51.426;7.714;2022-12-24T10:58:39;99463.75;;;10.24;100.00
71195;BME280;58908;51.426;7.714;2022-12-24T11:01:07;99465.25;;;10.28;100.00
71195;BME280;58908;51.426;7.714;2022-12-24T11:03:34;99459.28;;;10.24;100.00
71195;BME280;58908;51.426;7.714;2022-12-24T11:06:08;99458.75;;;10.19;100.00
71195;BME280;58908;51.426;7.714;2022-12-24T11:08:36;99456.09;;;10.19;100.00
71195;BME280;58908;51.426;7.714;2022-12-24T11:11:03;99452.88;;;10.14;100.00
71195;BME280;58908;51.426;7.714;2022-12-24T11:13:31;99460.50;;;10.05;100.00
71195;BME280;58908;51.426;7.714;2022-12-24T11:16:00;99455.84;;;9.94;100.00
71195;BME280;58908;51.426;7.714;2022-12-24T11:18:27;99450.72;;;9.91;100.00
71195;BME280;58908;51.426;7.714;2022-12-24T11:20:53;99453.00;;;9.83;100.00
71195;BME280;58908;51.426;7.714;2022-12-24T11:23:23;99469.16;;;9.77;100.00
71195;BME280;58908;51.426;7.714;2022-12-24T11:25:49;99462.88;;;9.80;100.00
71195;BME280;58908;51.426;7.714;2022-12-24T11:28:18;99455.78;;;9.80;100.00
71195;BME280;58908;51.426;7.714;2022-12-24T11:30:54;99456.47;;;9.84;100.00
71195;BME280;58908;51.426;7.714;2022-12-24T11:33:22;99457.41;;;9.83;100.00
71195;BME280;58908;51.426;7.714;2022-12-24T11:35:50;99450.72;;;9.91;100.00
71195;BME280;58908;51.426;7.714;2022-12-24T11:38:18;99447.41;;;10.03;100.00
71195;BME280;58908;51.426;7.714;2022-12-24T11:40:46;99451.59;;;10.21;100.00
71195;BME280;58908;51.426;7.714;2022-12-24T11:43:14;99440.97;;;10.23;100.00
71195;BME280;58908;51.426;7.714;2022-12-24T11:45:46;99449.69;;;10.23;100.00
71195;BME280;58908;51.426;7.714;2022-12-24T11:48:23;99439.16;;;10.23;100.00
71195;BME280;58908;51.426;7.714;2022-12-24T11:50:54;99445.91;;;10.13;100.00
71195;BME280;58908;51.426;7.714;2022-12-24T11:53:22;99445.75;;;10.16;100.00
71195;BME280;58908;51.426;7.714;2022-12-24T11:55:51;99458.16;;;10.14;100.00
71195;BME280;58908;51.426;7.714;2022-12-24T11:58:19;99448.00;;;10.22;100.00
71195;BME280;58908;51.426;7.714;2022-12-24T12:00:48;99445.44;;;10.21;100.00
71195;BME280;58908;51.426;7.714;2022-12-24T12:03:21;99452.06;;;10.14;100.00
71195;BME280;58908;51.426;7.714;2022-12-24T12:05:50;99455.16;;;10.20;100.00
71195;BME280;58908;51.426;7.714;2022-12-24T12:08:17;99462.59;;;10.28;100.00
71195;BME280;58908;51.426;7.714;2022-12-24T12:10:45;99467.59;;;10.18;100.00
71195;BME280;58908;51.426;7.714;2022-12-24T12:13:14;99475.38;;;10.20;100.00
71195;BME280;58908;51.426;7.714;2022-12-24T12:15:43;99471.53;;;10.25;100.00
71195;BME280;58908;51.426;7.714;2022-12-24T12:18:12;99478.06;;;10.34;100.00
71195;BME280;58908;51.426;7.714;2022-12-24T12:20:40;99472.13;;;10.30;100.00
71195;BME280;58908;51.426;7.714;2022-12-24T12:23:11;99475.97;;;10.25;100.00
71195;BME280;58908;51.426;7.714;2022-12-24T12:25:40;99481.72;;;10.17;100.00
71195;BME280;58908;51.426;7.714;2022-12-24T12:28:10;99479.50;;;10.10;100.00
71195;BME280;58908;51.426;7.714;2022-12-24T12:30:39;99476.22;;;10.06;100.00
71195;BME280;58908;51.426;7.714;2022-12-24T12:33:08;99492.13;;;10.05;100.00
71195;BME280;58908;51.426;7.714;2022-12-24T12:35:39;99487.53;;;10.08;100.00
71195;BME280;58908;51.426;7.714;2022-12-24T12:38:08;99496.38;;;10.21;100.00
71195;BME280;58908;51.426;7.714;2022-12-24T12:40:42;99496.88;;;10.28;100.00
71195;BME280;58908;51.426;7.714;2022-12-24T12:43:13;99499.69;;;10.25;100.00
71195;BME280;58908;51.426;7.714;2022-12-24T12:45:46;99493.69;;;10.23;100.00
71195;BME280;58908;51.426;7.714;2022-12-24T12:48:18;99493.94;;;10.18;100.00
71195;BME280;58908;51.426;7.714;2022-12-24T12:50:49;99498.81;;;10.10;100.00
71195;BME280;58908;51.426;7.714;2022-12-24T12:53:22;99490.75;;;9.98;100.00
71195;BME280;58908;51.426;7.714;2022-12-24T12:55:52;99507.13;;;9.89;100.00
71195;BME280;58908;51.426;7.714;2022-12-24T12:58:22;99502.94;;;9.85;100.00
71195;BME280;58908;51.426;7.714;2022-12-24T13:00:52;99508.47;;;9.80;100.00
71195;BME280;58908;51.426;7.714;2022-12-24T13:03:34;99502.59;;;9.91;100.00
71195;BME280;58908;51.426;7.714;2022-12-24T13:06:12;99510.38;;;10.08;100.00
71195;BME280;58908;51.426;7.714;2022-12-24T13:08:58;99517.59;;;10.04;100.00